Wainwright, AK (99782)

6:31 AM AKST on January 30, 2015 (GMT -0900)
Wainwright | Change Station
CLOSE
Current Station
Airport
Location: Wainwright,
Elevation: 39 ft
Nearby Weather Stations
Active Advisory: Blizzard Warning

Elev 39 ft 70.64 °N, 159.99 °W | Updated 38 minutes ago

Light Snow
Light Snow Mist
16 °F
Feels Like -4 °F
N
30
Wind Variable Wind from SSW

Today
High -- | Low -- °F
--% Chance of Precip.
Yesterday
High -- | Low -- °F
Precip. -- in
11:44 AM 3:58 PM
Waxing Gibbous, 83% visible
Pressure 30.11 in
Visibility 0.8 miles
Clouds Overcast 3800 ft
Windchill -4 °F
Dew Point 12 °F
Humidity 84%
Rainfall 0.00 in
Snow Depth Not available.
UV 0 out of 12
Pollen Not available.
Air Quality Not available.
Flu Activity Not available.
METAR PAWI 301453Z AUTO 20026KT 3/4SM -SN BR OVC038 M09/M11 A3010 RMK PK WND 19032/1450 SNB23 SLP195 P0000 60000 I1000 I3003 T10891111 58033 TSNO VIA AUTODIAL

More Conditions Fewer Conditions

Pressure 30.11 in
Visibility 0.8 miles
Clouds Overcast 3800 ft
Windchill -4 °F
Dew Point 12 °F
Humidity 84%
Rainfall 0.00 in
Snow Depth Not available.
UV 0 out of 12
Pollen Not available.
Air Quality Not available.
Flu Activity Not available.
METAR PAWI 301453Z AUTO 20026KT 3/4SM -SN BR OVC038 M09/M11 A3010 RMK PK WND 19032/1450 SNB23 SLP195 P0000 60000 I1000 I3003 T10891111 58033 TSNO VIA AUTODIAL

More Conditions Fewer Conditions

10-Day Weather Forecast

Almanac

Astronomy

Jan. 30, 2015 Rise Set
Actual Time
Civil Twilight
Nautical Twilight
Astronomical Twilight
Moon
Length of Visible Light
Length of Day
Tomorrow will be .
, % of the Moon is Illuminated

Today's Extremes

State Highs State Lows

Community

WunderPhotos

Upload Photos

1,791,791 photos uploaded!

WunderBlogs® & News

Nearby

Air Quality

  Air Quality AQ Index Pollutant
Not available.

Snow Depth

Station Depth Elevation

Earthquake Activity

City Distance Mag. Time & Date
Minimum magnitude displayed is 2.5.

Coastal Water Temperatures

Place Temperature

Nearby Weather Stations